sensor_id;sensor_type;location;lat;lon;timestamp;temperature;humidity
15625;DHT22;7912;51.376;6.126;2023-06-26T00:00:56;26.60;91.00
15625;DHT22;7912;51.376;6.126;2023-06-26T00:03:24;26.60;91.10
15625;DHT22;7912;51.376;6.126;2023-06-26T00:05:54;26.60;91.30
15625;DHT22;7912;51.376;6.126;2023-06-26T00:08:21;26.50;91.30
15625;DHT22;7912;51.376;6.126;2023-06-26T00:10:48;26.50;91.40
15625;DHT22;7912;51.376;6.126;2023-06-26T00:13:18;26.50;91.60
15625;DHT22;7912;51.376;6.126;2023-06-26T00:15:45;26.40;91.80
15625;DHT22;7912;51.376;6.126;2023-06-26T00:18:12;26.40;92.00
15625;DHT22;7912;51.376;6.126;2023-06-26T00:20:40;26.40;92.10
15625;DHT22;7912;51.376;6.126;2023-06-26T00:23:07;26.40;92.20
15625;DHT22;7912;51.376;6.126;2023-06-26T00:25:55;26.30;92.30
15625;DHT22;7912;51.376;6.126;2023-06-26T00:28:23;26.30;93.00
15625;DHT22;7912;51.376;6.126;2023-06-26T00:30:50;26.20;92.60
15625;DHT22;7912;51.376;6.126;2023-06-26T00:33:18;26.20;93.00
15625;DHT22;7912;51.376;6.126;2023-06-26T00:35:45;26.20;93.20
15625;DHT22;7912;51.376;6.126;2023-06-26T00:38:13;26.20;93.40
15625;DHT22;7912;51.376;6.126;2023-06-26T00:40:40;26.20;93.50
15625;DHT22;7912;51.376;6.126;2023-06-26T00:43:07;26.10;93.70
15625;DHT22;7912;51.376;6.126;2023-06-26T00:45:34;26.10;93.90
15625;DHT22;7912;51.376;6.126;2023-06-26T00:48:10;26.10;94.10
15625;DHT22;7912;51.376;6.126;2023-06-26T00:50:42;26.10;94.50
15625;DHT22;7912;51.376;6.126;2023-06-26T00:53:11;26.00;94.50
15625;DHT22;7912;51.376;6.126;2023-06-26T00:55:38;26.00;94.70
15625;DHT22;7912;51.376;6.126;2023-06-26T00:58:06;26.00;94.70
15625;DHT22;7912;51.376;6.126;2023-06-26T01:00:33;25.90;94.80
15625;DHT22;7912;51.376;6.126;2023-06-26T01:03:01;25.90;95.10
15625;DHT22;7912;51.376;6.126;2023-06-26T01:05:29;25.90;95.10
15625;DHT22;7912;51.376;6.126;2023-06-26T01:07:57;25.90;95.30
15625;DHT22;7912;51.376;6.126;2023-06-26T01:10:25;25.90;95.30
15625;DHT22;7912;51.376;6.126;2023-06-26T01:12:57;25.80;95.40
15625;DHT22;7912;51.376;6.126;2023-06-26T01:15:28;25.80;95.50
15625;DHT22;7912;51.376;6.126;2023-06-26T01:17:55;25.80;95.60
15625;DHT22;7912;51.376;6.126;2023-06-26T01:20:26;25.70;95.60
15625;DHT22;7912;51.376;6.126;2023-06-26T01:25:58;25.70;95.90
15625;DHT22;7912;51.376;6.126;2023-06-26T01:28:45;25.70;96.50
15625;DHT22;7912;51.376;6.126;2023-06-26T01:31:14;25.70;96.10
15625;DHT22;7912;51.376;6.126;2023-06-26T01:33:42;25.70;96.20
15625;DHT22;7912;51.376;6.126;2023-06-26T01:36:10;25.60;96.40
15625;DHT22;7912;51.376;6.126;2023-06-26T01:38:38;25.60;96.50
15625;DHT22;7912;51.376;6.126;2023-06-26T01:41:06;25.50;96.40
15625;DHT22;7912;51.376;6.126;2023-06-26T01:49:56;25.50;96.90
15625;DHT22;7912;51.376;6.126;2023-06-26T01:59:40;25.40;97.50
15625;DHT22;7912;51.376;6.126;2023-06-26T02:03:01;25.30;97.80
15625;DHT22;7912;51.376;6.126;2023-06-26T02:05:43;25.30;98.10
15625;DHT22;7912;51.376;6.126;2023-06-26T02:08:29;25.30;97.60
15625;DHT22;7912;51.376;6.126;2023-06-26T02:10:58;25.30;97.90
15625;DHT22;7912;51.376;6.126;2023-06-26T02:13:25;25.20;97.50
15625;DHT22;7912;51.376;6.126;2023-06-26T02:16:13;25.20;97.40
15625;DHT22;7912;51.376;6.126;2023-06-26T02:18:43;25.20;97.60
15625;DHT22;7912;51.376;6.126;2023-06-26T02:21:10;25.10;97.10
15625;DHT22;7912;51.376;6.126;2023-06-26T02:23:38;25.10;97.00
15625;DHT22;7912;51.376;6.126;2023-06-26T02:26:05;25.10;96.90
15625;DHT22;7912;51.376;6.126;2023-06-26T02:28:33;25.10;96.90
15625;DHT22;7912;51.376;6.126;2023-06-26T02:31:01;25.10;96.80
15625;DHT22;7912;51.376;6.126;2023-06-26T02:33:28;25.10;96.80
15625;DHT22;7912;51.376;6.126;2023-06-26T02:35:56;25.10;96.80
15625;DHT22;7912;51.376;6.126;2023-06-26T02:38:23;25.00;96.80
15625;DHT22;7912;51.376;6.126;2023-06-26T02:40:50;25.10;96.80
15625;DHT22;7912;51.376;6.126;2023-06-26T02:43:17;25.00;96.80
15625;DHT22;7912;51.376;6.126;2023-06-26T02:45:45;25.00;96.90
15625;DHT22;7912;51.376;6.126;2023-06-26T02:48:12;25.00;97.00
15625;DHT22;7912;51.376;6.126;2023-06-26T02:50:39;25.00;96.90
15625;DHT22;7912;51.376;6.126;2023-06-26T02:53:07;25.00;96.70
15625;DHT22;7912;51.376;6.126;2023-06-26T02:55:34;25.00;96.70
15625;DHT22;7912;51.376;6.126;2023-06-26T02:58:02;25.00;96.80
15625;DHT22;7912;51.376;6.126;2023-06-26T03:00:29;24.90;96.60
15625;DHT22;7912;51.376;6.126;2023-06-26T03:02:57;24.90;96.70
15625;DHT22;7912;51.376;6.126;2023-06-26T03:05:24;24.90;96.70
15625;DHT22;7912;51.376;6.126;2023-06-26T03:07:52;24.90;96.80
15625;DHT22;7912;51.376;6.126;2023-06-26T03:10:19;24.80;96.70
15625;DHT22;7912;51.376;6.126;2023-06-26T03:12:46;24.80;96.80
15625;DHT22;7912;51.376;6.126;2023-06-26T03:15:13;24.80;97.00
15625;DHT22;7912;51.376;6.126;2023-06-26T03:17:41;24.80;97.20
15625;DHT22;7912;51.376;6.126;2023-06-26T03:20:08;24.70;97.50
15625;DHT22;7912;51.376;6.126;2023-06-26T03:22:37;24.70;97.50
15625;DHT22;7912;51.376;6.126;2023-06-26T03:25:05;24.70;97.60
15625;DHT22;7912;51.376;6.126;2023-06-26T03:27:32;24.70;97.70
15625;DHT22;7912;51.376;6.126;2023-06-26T03:30:00;24.60;97.80
15625;DHT22;7912;51.376;6.126;2023-06-26T03:32:27;24.60;97.80
15625;DHT22;7912;51.376;6.126;2023-06-26T03:39:04;24.60;98.10
15625;DHT22;7912;51.376;6.126;2023-06-26T03:41:31;24.60;97.50
15625;DHT22;7912;51.376;6.126;2023-06-26T03:43:59;24.60;97.50
15625;DHT22;7912;51.376;6.126;2023-06-26T03:46:27;24.60;97.50
15625;DHT22;7912;51.376;6.126;2023-06-26T03:48:55;24.60;97.30
15625;DHT22;7912;51.376;6.126;2023-06-26T03:51:22;24.60;97.30
15625;DHT22;7912;51.376;6.126;2023-06-26T03:53:50;24.60;97.20
15625;DHT22;7912;51.376;6.126;2023-06-26T03:56:17;24.60;97.00
15625;DHT22;7912;51.376;6.126;2023-06-26T03:58:44;24.60;96.90
15625;DHT22;7912;51.376;6.126;2023-06-26T04:01:30;24.60;96.80
15625;DHT22;7912;51.376;6.126;2023-06-26T04:03:59;24.60;96.90
15625;DHT22;7912;51.376;6.126;2023-06-26T04:06:27;24.50;96.60
15625;DHT22;7912;51.376;6.126;2023-06-26T04:08:54;24.60;96.60
15625;DHT22;7912;51.376;6.126;2023-06-26T04:11:22;24.50;96.50
15625;DHT22;7912;51.376;6.126;2023-06-26T04:16:53;24.50;97.00
15625;DHT22;7912;51.376;6.126;2023-06-26T04:19:21;24.50;96.90
15625;DHT22;7912;51.376;6.126;2023-06-26T04:21:48;24.40;97.00
15625;DHT22;7912;51.376;6.126;2023-06-26T04:24:15;24.40;97.10
15625;DHT22;7912;51.376;6.126;2023-06-26T04:26:43;24.40;97.10
15625;DHT22;7912;51.376;6.126;2023-06-26T04:29:12;24.40;97.10
15625;DHT22;7912;51.376;6.126;2023-06-26T04:31:39;24.30;97.00
15625;DHT22;7912;51.376;6.126;2023-06-26T04:34:07;24.40;97.10
15625;DHT22;7912;51.376;6.126;2023-06-26T04:36:34;24.40;97.20
15625;DHT22;7912;51.376;6.126;2023-06-26T04:39:06;24.40;97.10
15625;DHT22;7912;51.376;6.126;2023-06-26T04:41:33;24.40;97.10
15625;DHT22;7912;51.376;6.126;2023-06-26T04:44:01;24.40;97.00
15625;DHT22;7912;51.376;6.126;2023-06-26T04:46:29;24.40;97.10
15625;DHT22;7912;51.376;6.126;2023-06-26T04:48:57;24.40;97.10
15625;DHT22;7912;51.376;6.126;2023-06-26T04:51:27;24.40;97.20
15625;DHT22;7912;51.376;6.126;2023-06-26T04:53:55;24.30;97.30
15625;DHT22;7912;51.376;6.126;2023-06-26T04:56:23;24.30;97.30
15625;DHT22;7912;51.376;6.126;2023-06-26T04:58:50;24.30;97.40
15625;DHT22;7912;51.376;6.126;2023-06-26T05:01:18;24.30;97.60
15625;DHT22;7912;51.376;6.126;2023-06-26T05:03:45;24.30;97.70
15625;DHT22;7912;51.376;6.126;2023-06-26T05:06:14;24.30;97.80
15625;DHT22;7912;51.376;6.126;2023-06-26T05:08:42;24.30;97.90
15625;DHT22;7912;51.376;6.126;2023-06-26T05:11:09;24.30;98.10
15625;DHT22;7912;51.376;6.126;2023-06-26T05:13:37;24.30;98.30
15625;DHT22;7912;51.376;6.126;2023-06-26T05:16:04;24.30;98.40
15625;DHT22;7912;51.376;6.126;2023-06-26T05:18:33;24.30;98.60
15625;DHT22;7912;51.376;6.126;2023-06-26T05:21:00;24.30;98.80
15625;DHT22;7912;51.376;6.126;2023-06-26T05:23:31;24.30;98.80
15625;DHT22;7912;51.376;6.126;2023-06-26T05:26:00;24.30;98.90
15625;DHT22;7912;51.376;6.126;2023-06-26T05:28:32;24.30;98.70
15625;DHT22;7912;51.376;6.126;2023-06-26T05:31:00;24.30;98.90
15625;DHT22;7912;51.376;6.126;2023-06-26T05:33:27;24.30;98.90
15625;DHT22;7912;51.376;6.126;2023-06-26T05:35:55;24.30;99.00
15625;DHT22;7912;51.376;6.126;2023-06-26T05:38:24;24.30;99.10
15625;DHT22;7912;51.376;6.126;2023-06-26T05:40:52;24.20;99.20
15625;DHT22;7912;51.376;6.126;2023-06-26T05:43:20;24.20;99.30
15625;DHT22;7912;51.376;6.126;2023-06-26T05:45:54;24.20;99.40
15625;DHT22;7912;51.376;6.126;2023-06-26T05:48:21;24.20;99.70
15625;DHT22;7912;51.376;6.126;2023-06-26T05:50:49;24.30;99.90
15625;DHT22;7912;51.376;6.126;2023-06-26T05:53:18;24.20;99.90
15625;DHT22;7912;51.376;6.126;2023-06-26T05:55:46;24.30;99.90
15625;DHT22;7912;51.376;6.126;2023-06-26T05:58:14;24.30;99.90
15625;DHT22;7912;51.376;6.126;2023-06-26T06:00:43;24.30;99.90
15625;DHT22;7912;51.376;6.126;2023-06-26T06:03:11;24.40;99.90
15625;DHT22;7912;51.376;6.126;2023-06-26T06:05:38;24.40;99.90
15625;DHT22;7912;51.376;6.126;2023-06-26T06:08:05;24.40;99.90
15625;DHT22;7912;51.376;6.126;2023-06-26T06:10:33;24.50;99.90
15625;DHT22;7912;51.376;6.126;2023-06-26T06:13:00;24.50;99.90
15625;DHT22;7912;51.376;6.126;2023-06-26T06:15:47;24.60;99.90
15625;DHT22;7912;51.376;6.126;2023-06-26T06:18:15;24.70;99.90
15625;DHT22;7912;51.376;6.126;2023-06-26T06:20:43;24.70;99.90
15625;DHT22;7912;51.376;6.126;2023-06-26T06:23:11;24.80;99.90
15625;DHT22;7912;51.376;6.126;2023-06-26T06:25:39;25.00;99.90
15625;DHT22;7912;51.376;6.126;2023-06-26T06:28:07;25.10;99.90
15625;DHT22;7912;51.376;6.126;2023-06-26T06:30:34;25.10;99.80
15625;DHT22;7912;51.376;6.126;2023-06-26T06:33:12;25.20;99.90
15625;DHT22;7912;51.376;6.126;2023-06-26T06:35:40;25.30;99.50
15625;DHT22;7912;51.376;6.126;2023-06-26T06:38:08;25.30;99.20
15625;DHT22;7912;51.376;6.126;2023-06-26T06:40:36;25.30;99.20
15625;DHT22;7912;51.376;6.126;2023-06-26T06:43:04;25.40;99.30
15625;DHT22;7912;51.376;6.126;2023-06-26T06:45:32;25.50;99.10
15625;DHT22;7912;51.376;6.126;2023-06-26T06:47:59;25.60;99.00
15625;DHT22;7912;51.376;6.126;2023-06-26T06:50:48;25.70;98.80
15625;DHT22;7912;51.376;6.126;2023-06-26T06:53:18;25.80;98.30
15625;DHT22;7912;51.376;6.126;2023-06-26T06:55:50;26.00;98.20
15625;DHT22;7912;51.376;6.126;2023-06-26T06:58:17;26.10;97.80
15625;DHT22;7912;51.376;6.126;2023-06-26T07:00:48;26.30;97.50
15625;DHT22;7912;51.376;6.126;2023-06-26T07:03:18;26.40;97.30
15625;DHT22;7912;51.376;6.126;2023-06-26T07:05:45;26.50;96.80
15625;DHT22;7912;51.376;6.126;2023-06-26T07:08:13;26.70;96.60
15625;DHT22;7912;51.376;6.126;2023-06-26T07:10:41;26.80;96.40
15625;DHT22;7912;51.376;6.126;2023-06-26T07:13:09;26.90;96.10
15625;DHT22;7912;51.376;6.126;2023-06-26T07:15:37;27.10;95.80
15625;DHT22;7912;51.376;6.126;2023-06-26T07:18:04;27.20;95.50
15625;DHT22;7912;51.376;6.126;2023-06-26T07:20:32;27.40;95.40
15625;DHT22;7912;51.376;6.126;2023-06-26T07:23:00;27.50;95.00
15625;DHT22;7912;51.376;6.126;2023-06-26T07:25:27;27.70;94.60
15625;DHT22;7912;51.376;6.126;2023-06-26T07:27:55;27.90;94.10
15625;DHT22;7912;51.376;6.126;2023-06-26T07:30:25;28.10;93.70
15625;DHT22;7912;51.376;6.126;2023-06-26T07:32:53;28.20;93.00
15625;DHT22;7912;51.376;6.126;2023-06-26T07:35:21;28.40;92.90
15625;DHT22;7912;51.376;6.126;2023-06-26T07:37:48;28.50;92.70
15625;DHT22;7912;51.376;6.126;2023-06-26T07:40:16;28.50;92.20
15625;DHT22;7912;51.376;6.126;2023-06-26T07:42:44;28.50;92.00
15625;DHT22;7912;51.376;6.126;2023-06-26T07:45:13;28.50;91.80
15625;DHT22;7912;51.376;6.126;2023-06-26T07:47:41;28.50;91.50
15625;DHT22;7912;51.376;6.126;2023-06-26T07:50:09;28.50;91.50
15625;DHT22;7912;51.376;6.126;2023-06-26T07:52:36;28.40;91.10
15625;DHT22;7912;51.376;6.126;2023-06-26T07:55:04;28.40;91.10
15625;DHT22;7912;51.376;6.126;2023-06-26T07:57:32;28.30;91.10
15625;DHT22;7912;51.376;6.126;2023-06-26T08:00:00;28.20;91.20
15625;DHT22;7912;51.376;6.126;2023-06-26T08:02:27;28.20;91.30
15625;DHT22;7912;51.376;6.126;2023-06-26T08:04:54;28.20;91.50
15625;DHT22;7912;51.376;6.126;2023-06-26T08:07:22;28.30;91.40
15625;DHT22;7912;51.376;6.126;2023-06-26T08:09:49;28.40;91.40
15625;DHT22;7912;51.376;6.126;2023-06-26T08:12:19;28.50;91.10
15625;DHT22;7912;51.376;6.126;2023-06-26T08:14:47;28.50;90.60
15625;DHT22;7912;51.376;6.126;2023-06-26T08:17:15;28.60;90.80
15625;DHT22;7912;51.376;6.126;2023-06-26T08:19:42;28.60;90.70
15625;DHT22;7912;51.376;6.126;2023-06-26T08:22:10;28.70;90.40
15625;DHT22;7912;51.376;6.126;2023-06-26T08:24:37;28.70;90.30
15625;DHT22;7912;51.376;6.126;2023-06-26T08:27:05;28.70;90.20
15625;DHT22;7912;51.376;6.126;2023-06-26T08:29:34;28.80;90.10
15625;DHT22;7912;51.376;6.126;2023-06-26T08:32:01;28.80;90.10
15625;DHT22;7912;51.376;6.126;2023-06-26T08:34:29;28.80;90.10
15625;DHT22;7912;51.376;6.126;2023-06-26T08:36:56;28.90;90.30
15625;DHT22;7912;51.376;6.126;2023-06-26T08:39:24;29.00;90.00
15625;DHT22;7912;51.376;6.126;2023-06-26T08:41:52;29.10;89.80
15625;DHT22;7912;51.376;6.126;2023-06-26T08:44:20;29.20;89.20
15625;DHT22;7912;51.376;6.126;2023-06-26T08:46:51;29.30;88.20
15625;DHT22;7912;51.376;6.126;2023-06-26T08:50:12;29.40;88.10
15625;DHT22;7912;51.376;6.126;2023-06-26T08:52:23;29.40;87.50
15625;DHT22;7912;51.376;6.126;2023-06-26T08:54:56;29.50;87.50
15625;DHT22;7912;51.376;6.126;2023-06-26T08:57:26;29.60;87.20
15625;DHT22;7912;51.376;6.126;2023-06-26T08:59:55;29.60;87.10
15625;DHT22;7912;51.376;6.126;2023-06-26T09:02:24;29.60;87.40
15625;DHT22;7912;51.376;6.126;2023-06-26T09:04:52;29.70;86.60
15625;DHT22;7912;51.376;6.126;2023-06-26T09:10:27;30.00;84.20
15625;DHT22;7912;51.376;6.126;2023-06-26T09:12:56;30.10;83.80
15625;DHT22;7912;51.376;6.126;2023-06-26T09:15:37;30.00;82.70
15625;DHT22;7912;51.376;6.126;2023-06-26T09:18:06;29.90;83.50
15625;DHT22;7912;51.376;6.126;2023-06-26T09:20:35;29.80;84.20
15625;DHT22;7912;51.376;6.126;2023-06-26T09:23:04;29.80;85.30
15625;DHT22;7912;51.376;6.126;2023-06-26T09:25:32;29.90;85.60
15625;DHT22;7912;51.376;6.126;2023-06-26T09:28:00;30.00;83.60
15625;DHT22;7912;51.376;6.126;2023-06-26T09:30:28;30.10;82.80
15625;DHT22;7912;51.376;6.126;2023-06-26T09:33:22;30.20;82.30
15625;DHT22;7912;51.376;6.126;2023-06-26T09:35:50;30.40;81.40
15625;DHT22;7912;51.376;6.126;2023-06-26T09:38:17;30.50;80.70
15625;DHT22;7912;51.376;6.126;2023-06-26T09:40:45;30.50;79.20
15625;DHT22;7912;51.376;6.126;2023-06-26T09:43:13;30.40;78.50
15625;DHT22;7912;51.376;6.126;2023-06-26T09:45:41;30.40;78.50
15625;DHT22;7912;51.376;6.126;2023-06-26T09:48:08;30.30;78.30
15625;DHT22;7912;51.376;6.126;2023-06-26T09:50:36;30.30;78.20
15625;DHT22;7912;51.376;6.126;2023-06-26T09:53:10;30.30;78.50
15625;DHT22;7912;51.376;6.126;2023-06-26T09:55:40;30.30;77.30
15625;DHT22;7912;51.376;6.126;2023-06-26T09:58:11;30.30;76.10
15625;DHT22;7912;51.376;6.126;2023-06-26T10:00:43;30.20;75.10
15625;DHT22;7912;51.376;6.126;2023-06-26T10:03:11;30.20;74.30
15625;DHT22;7912;51.376;6.126;2023-06-26T10:05:41;30.20;74.10
15625;DHT22;7912;51.376;6.126;2023-06-26T10:08:11;30.30;74.00
15625;DHT22;7912;51.376;6.126;2023-06-26T10:10:41;30.40;73.50
15625;DHT22;7912;51.376;6.126;2023-06-26T10:13:16;30.50;73.00
15625;DHT22;7912;51.376;6.126;2023-06-26T10:15:50;30.70;70.80
15625;DHT22;7912;51.376;6.126;2023-06-26T10:18:19;30.80;70.00
15625;DHT22;7912;51.376;6.126;2023-06-26T10:20:52;30.80;68.70
15625;DHT22;7912;51.376;6.126;2023-06-26T10:23:23;30.90;67.50
15625;DHT22;7912;51.376;6.126;2023-06-26T10:25:55;31.00;66.70
15625;DHT22;7912;51.376;6.126;2023-06-26T10:28:30;31.00;66.00
15625;DHT22;7912;51.376;6.126;2023-06-26T10:31:01;31.10;66.40
15625;DHT22;7912;51.376;6.126;2023-06-26T10:33:31;31.20;65.20
15625;DHT22;7912;51.376;6.126;2023-06-26T10:36:26;31.30;64.30
15625;DHT22;7912;51.376;6.126;2023-06-26T10:38:57;31.30;62.90
15625;DHT22;7912;51.376;6.126;2023-06-26T10:41:39;31.40;63.50
15625;DHT22;7912;51.376;6.126;2023-06-26T10:44:43;31.40;62.20
15625;DHT22;7912;51.376;6.126;2023-06-26T10:55:58;31.20;59.00
15625;DHT22;7912;51.376;6.126;2023-06-26T11:04:01;31.10;58.80
15625;DHT22;7912;51.376;6.126;2023-06-26T11:06:35;31.20;59.40
15625;DHT22;7912;51.376;6.126;2023-06-26T11:09:09;31.30;59.40
15625;DHT22;7912;51.376;6.126;2023-06-26T11:14:23;31.20;56.80
15625;DHT22;7912;51.376;6.126;2023-06-26T11:16:55;31.20;56.70
15625;DHT22;7912;51.376;6.126;2023-06-26T11:19:26;31.20;56.00
15625;DHT22;7912;51.376;6.126;2023-06-26T11:22:02;31.20;56.10
15625;DHT22;7912;51.376;6.126;2023-06-26T11:24:31;31.20;54.90
15625;DHT22;7912;51.376;6.126;2023-06-26T11:27:03;31.30;55.40
15625;DHT22;7912;51.376;6.126;2023-06-26T11:29:32;31.40;55.60
15625;DHT22;7912;51.376;6.126;2023-06-26T11:32:04;31.50;56.00
15625;DHT22;7912;51.376;6.126;2023-06-26T11:34:33;31.60;55.70
15625;DHT22;7912;51.376;6.126;2023-06-26T11:37:02;31.60;55.90
15625;DHT22;7912;51.376;6.126;2023-06-26T11:39:30;31.80;56.00
15625;DHT22;7912;51.376;6.126;2023-06-26T11:41:59;31.90;55.60
15625;DHT22;7912;51.376;6.126;2023-06-26T11:44:30;32.00;55.00
15625;DHT22;7912;51.376;6.126;2023-06-26T11:46:58;32.10;54.60
15625;DHT22;7912;51.376;6.126;2023-06-26T11:49:28;32.20;54.60
15625;DHT22;7912;51.376;6.126;2023-06-26T11:51:56;32.20;53.80
15625;DHT22;7912;51.376;6.126;2023-06-26T11:54:24;32.30;54.20
15625;DHT22;7912;51.376;6.126;2023-06-26T11:56:55;32.20;53.80
15625;DHT22;7912;51.376;6.126;2023-06-26T11:59:39;32.20;53.70
15625;DHT22;7912;51.376;6.126;2023-06-26T12:02:07;32.20;53.60
15625;DHT22;7912;51.376;6.126;2023-06-26T12:08:07;32.10;53.70
15625;DHT22;7912;51.376;6.126;2023-06-26T12:10:35;32.10;53.30
15625;DHT22;7912;51.376;6.126;2023-06-26T12:13:03;31.90;53.10
15625;DHT22;7912;51.376;6.126;2023-06-26T12:15:31;31.70;53.40
15625;DHT22;7912;51.376;6.126;2023-06-26T12:17:58;31.50;53.50
15625;DHT22;7912;51.376;6.126;2023-06-26T12:20:26;31.30;54.10
15625;DHT22;7912;51.376;6.126;2023-06-26T12:22:57;31.20;54.00
15625;DHT22;7912;51.376;6.126;2023-06-26T12:25:25;31.10;54.30
15625;DHT22;7912;51.376;6.126;2023-06-26T12:27:52;31.00;53.20
15625;DHT22;7912;51.376;6.126;2023-06-26T12:30:19;31.10;53.60
15625;DHT22;7912;51.376;6.126;2023-06-26T12:32:47;31.10;53.00
15625;DHT22;7912;51.376;6.126;2023-06-26T12:35:15;31.00;52.40
15625;DHT22;7912;51.376;6.126;2023-06-26T12:37:43;31.00;52.50
15625;DHT22;7912;51.376;6.126;2023-06-26T12:40:17;30.90;52.10
15625;DHT22;7912;51.376;6.126;2023-06-26T12:42:46;30.80;52.30
15625;DHT22;7912;51.376;6.126;2023-06-26T12:45:14;30.70;52.60
15625;DHT22;7912;51.376;6.126;2023-06-26T12:48:12;30.70;52.80
15625;DHT22;7912;51.376;6.126;2023-06-26T12:50:45;30.80;52.80
15625;DHT22;7912;51.376;6.126;2023-06-26T12:53:13;30.90;53.20
15625;DHT22;7912;51.376;6.126;2023-06-26T12:55:40;31.00;52.80
15625;DHT22;7912;51.376;6.126;2023-06-26T12:58:09;31.20;52.50
15625;DHT22;7912;51.376;6.126;2023-06-26T13:00:36;31.30;52.10
15625;DHT22;7912;51.376;6.126;2023-06-26T13:03:04;31.30;51.80
15625;DHT22;7912;51.376;6.126;2023-06-26T13:05:35;31.30;52.40
15625;DHT22;7912;51.376;6.126;2023-06-26T13:08:02;31.40;53.10
15625;DHT22;7912;51.376;6.126;2023-06-26T13:10:30;31.40;52.60
15625;DHT22;7912;51.376;6.126;2023-06-26T13:12:57;31.40;52.60
15625;DHT22;7912;51.376;6.126;2023-06-26T13:15:25;31.30;52.50
15625;DHT22;7912;51.376;6.126;2023-06-26T13:17:52;31.30;53.00
15625;DHT22;7912;51.376;6.126;2023-06-26T13:20:20;31.30;53.00
15625;DHT22;7912;51.376;6.126;2023-06-26T13:22:47;31.30;53.00
15625;DHT22;7912;51.376;6.126;2023-06-26T13:25:15;31.30;52.90
15625;DHT22;7912;51.376;6.126;2023-06-26T13:27:43;31.40;53.00
15625;DHT22;7912;51.376;6.126;2023-06-26T13:30:10;31.30;52.50
15625;DHT22;7912;51.376;6.126;2023-06-26T13:32:38;31.30;52.20
15625;DHT22;7912;51.376;6.126;2023-06-26T13:42:17;31.50;52.00
15625;DHT22;7912;51.376;6.126;2023-06-26T13:48:10;31.60;51.20
15625;DHT22;7912;51.376;6.126;2023-06-26T13:53:44;31.80;50.40
15625;DHT22;7912;51.376;6.126;2023-06-26T13:56:11;31.80;50.80
15625;DHT22;7912;51.376;6.126;2023-06-26T13:58:39;31.80;50.80
15625;DHT22;7912;51.376;6.126;2023-06-26T14:01:06;31.70;50.90
15625;DHT22;7912;51.376;6.126;2023-06-26T14:03:34;31.70;50.80
15625;DHT22;7912;51.376;6.126;2023-06-26T14:06:01;31.50;51.10
15625;DHT22;7912;51.376;6.126;2023-06-26T14:08:28;31.40;51.40
15625;DHT22;7912;51.376;6.126;2023-06-26T14:10:56;31.30;51.70
15625;DHT22;7912;51.376;6.126;2023-06-26T14:13:24;31.20;51.90
15625;DHT22;7912;51.376;6.126;2023-06-26T14:15:51;31.10;52.10
15625;DHT22;7912;51.376;6.126;2023-06-26T14:18:20;31.00;52.20
15625;DHT22;7912;51.376;6.126;2023-06-26T14:20:55;31.00;52.50
15625;DHT22;7912;51.376;6.126;2023-06-26T14:23:25;30.90;52.80
15625;DHT22;7912;51.376;6.126;2023-06-26T14:25:53;31.00;53.00
15625;DHT22;7912;51.376;6.126;2023-06-26T14:28:20;31.00;52.90
15625;DHT22;7912;51.376;6.126;2023-06-26T14:30:47;31.10;52.60
15625;DHT22;7912;51.376;6.126;2023-06-26T14:33:15;31.20;52.20
15625;DHT22;7912;51.376;6.126;2023-06-26T14:43:53;30.70;52.20
15625;DHT22;7912;51.376;6.126;2023-06-26T14:46:22;30.50;52.50
15625;DHT22;7912;51.376;6.126;2023-06-26T14:48:53;30.40;53.00
15625;DHT22;7912;51.376;6.126;2023-06-26T14:51:22;30.40;52.50
15625;DHT22;7912;51.376;6.126;2023-06-26T14:53:50;30.30;52.70
15625;DHT22;7912;51.376;6.126;2023-06-26T14:56:17;30.20;52.60
15625;DHT22;7912;51.376;6.126;2023-06-26T14:58:44;30.10;52.80
15625;DHT22;7912;51.376;6.126;2023-06-26T15:01:14;29.90;52.80
15625;DHT22;7912;51.376;6.126;2023-06-26T15:03:42;29.80;52.90
15625;DHT22;7912;51.376;6.126;2023-06-26T15:06:10;29.70;53.10
15625;DHT22;7912;51.376;6.126;2023-06-26T15:08:37;29.50;53.10
15625;DHT22;7912;51.376;6.126;2023-06-26T15:15:21;29.40;53.50
15625;DHT22;7912;51.376;6.126;2023-06-26T15:17:49;29.50;53.50
15625;DHT22;7912;51.376;6.126;2023-06-26T15:20:17;29.50;53.40
15625;DHT22;7912;51.376;6.126;2023-06-26T15:23:03;29.40;53.40
15625;DHT22;7912;51.376;6.126;2023-06-26T15:25:30;29.40;53.40
15625;DHT22;7912;51.376;6.126;2023-06-26T15:28:00;29.50;53.90
15625;DHT22;7912;51.376;6.126;2023-06-26T15:30:27;29.50;54.00
15625;DHT22;7912;51.376;6.126;2023-06-26T15:32:55;29.50;54.00
15625;DHT22;7912;51.376;6.126;2023-06-26T15:35:22;29.50;54.00
15625;DHT22;7912;51.376;6.126;2023-06-26T15:37:50;29.40;53.80
15625;DHT22;7912;51.376;6.126;2023-06-26T15:40:18;29.20;53.70
15625;DHT22;7912;51.376;6.126;2023-06-26T15:42:47;29.00;53.90
15625;DHT22;7912;51.376;6.126;2023-06-26T15:45:16;28.80;54.10
15625;DHT22;7912;51.376;6.126;2023-06-26T15:47:53;28.50;54.30
15625;DHT22;7912;51.376;6.126;2023-06-26T15:50:20;28.30;54.70
15625;DHT22;7912;51.376;6.126;2023-06-26T15:52:51;28.10;55.10
15625;DHT22;7912;51.376;6.126;2023-06-26T15:55:19;28.00;55.40
15625;DHT22;7912;51.376;6.126;2023-06-26T15:57:46;27.90;55.60
15625;DHT22;7912;51.376;6.126;2023-06-26T16:00:14;27.90;56.00
15625;DHT22;7912;51.376;6.126;2023-06-26T16:02:43;27.90;56.20
15625;DHT22;7912;51.376;6.126;2023-06-26T16:05:10;27.90;56.20
15625;DHT22;7912;51.376;6.126;2023-06-26T16:07:38;27.90;56.10
15625;DHT22;7912;51.376;6.126;2023-06-26T16:10:23;27.90;56.10
15625;DHT22;7912;51.376;6.126;2023-06-26T16:12:51;27.90;56.20
15625;DHT22;7912;51.376;6.126;2023-06-26T16:15:18;27.90;56.20
15625;DHT22;7912;51.376;6.126;2023-06-26T16:17:46;27.90;56.30
15625;DHT22;7912;51.376;6.126;2023-06-26T16:20:13;27.80;56.20
15625;DHT22;7912;51.376;6.126;2023-06-26T16:22:41;27.70;56.30
15625;DHT22;7912;51.376;6.126;2023-06-26T16:25:09;27.60;56.30
15625;DHT22;7912;51.376;6.126;2023-06-26T16:27:36;27.50;56.50
15625;DHT22;7912;51.376;6.126;2023-06-26T16:30:04;27.40;56.80
15625;DHT22;7912;51.376;6.126;2023-06-26T16:32:31;27.30;56.90
15625;DHT22;7912;51.376;6.126;2023-06-26T16:35:00;27.20;57.00
15625;DHT22;7912;51.376;6.126;2023-06-26T16:37:27;27.10;57.20
15625;DHT22;7912;51.376;6.126;2023-06-26T16:39:55;27.10;57.40
15625;DHT22;7912;51.376;6.126;2023-06-26T16:42:22;27.00;57.50
15625;DHT22;7912;51.376;6.126;2023-06-26T16:44:49;27.00;57.50
15625;DHT22;7912;51.376;6.126;2023-06-26T16:47:17;26.90;57.60
15625;DHT22;7912;51.376;6.126;2023-06-26T16:49:46;26.90;57.60
15625;DHT22;7912;51.376;6.126;2023-06-26T16:52:13;26.80;57.60
15625;DHT22;7912;51.376;6.126;2023-06-26T16:54:41;26.70;57.90
15625;DHT22;7912;51.376;6.126;2023-06-26T16:57:09;26.70;58.00
15625;DHT22;7912;51.376;6.126;2023-06-26T16:59:37;26.60;58.20
15625;DHT22;7912;51.376;6.126;2023-06-26T17:02:05;26.60;58.10
15625;DHT22;7912;51.376;6.126;2023-06-26T17:04:32;26.60;58.00
15625;DHT22;7912;51.376;6.126;2023-06-26T17:07:20;26.60;58.00
15625;DHT22;7912;51.376;6.126;2023-06-26T17:09:51;26.50;58.20
15625;DHT22;7912;51.376;6.126;2023-06-26T17:12:18;26.50;58.30